Benton, Iowa
Current Conditions -  °F | °C
As of 7:55 PM on Thursday 18 Dec 2014 (Local Time) from KCSQ Reporting Station
Overcast Overcast  
Wind Chill: 22°   Ceiling: 1000
Heat Index: 28°   Visibility: 9mi
Dew Point: 28°   Wind: 6mph
Humidity: 100%   Direction: 110°ESE
Pressure: 30.23"   Gusts: NA
Location:  40.7°N, 94.36°W
Report Text: KCSQ 190155Z AUTO 11005KT 9SM OVC010 M02/M02 A3023 RMK AO2
Loading
Personal Weather Stations






























Interactive Weather Map New forecast layout! Learn more

10-Day Weather Forecast

Advertisements
Track Severe Weather on mobile